createdAt,value
2023-02-11T00:02:49.024Z,1020.03
2023-02-11T00:08:33.299Z,1019.95
2023-02-11T00:14:17.109Z,1019.87
2023-02-11T00:20:00.881Z,1020
2023-02-11T00:25:45.880Z,1020.04
2023-02-11T00:31:30.288Z,1019.86
2023-02-11T00:37:14.713Z,1019.59
2023-02-11T00:42:58.401Z,1019.55
2023-02-11T00:48:42.261Z,1019.46
2023-02-11T00:54:27.356Z,1019.56
2023-02-11T01:00:14.373Z,1019.63
2023-02-11T01:05:58.154Z,1019.39
2023-02-11T01:11:41.835Z,1019.29
2023-02-11T01:17:25.769Z,1019.45
2023-02-11T01:23:09.477Z,1019.71
2023-02-11T01:28:53.207Z,1019.46
2023-02-11T01:34:37.033Z,1019.48
2023-02-11T01:40:20.770Z,1019.34
2023-02-11T01:46:20.693Z,1019.27
2023-02-11T01:52:07.280Z,1019.24
2023-02-11T01:57:53.255Z,1019.14
2023-02-11T02:03:40.702Z,1019.17
2023-02-11T02:09:27.446Z,1019.25
2023-02-11T02:15:25.559Z,1019.24
2023-02-11T02:21:28.546Z,1019.3
2023-02-11T02:27:29.690Z,1019.24
2023-02-11T02:33:25.085Z,1019.15
2023-02-11T02:39:12.687Z,1019.06
2023-02-11T02:44:56.769Z,1019.17
2023-02-11T02:50:40.954Z,1019.15
2023-02-11T02:56:29.319Z,1019.07
2023-02-11T03:02:17.714Z,1019.07
2023-02-11T03:08:04.799Z,1019.04
2023-02-11T03:13:49.410Z,1019.1
2023-02-11T03:19:36.534Z,1019.09
2023-02-11T03:25:21.388Z,1019.18
2023-02-11T03:31:11.329Z,1019.11
2023-02-11T03:36:57.941Z,1018.97
2023-02-11T03:42:43.177Z,1019.03
2023-02-11T03:48:28.559Z,1019.08
2023-02-11T03:54:17.142Z,1018.98
2023-02-11T04:00:00.948Z,1018.86
2023-02-11T04:05:44.794Z,1018.85
2023-02-11T04:11:28.456Z,1018.79
2023-02-11T04:17:12.589Z,1018.8
2023-02-11T04:22:56.393Z,1018.78
2023-02-11T04:28:40.292Z,1018.87
2023-02-11T04:34:24.349Z,1018.88
2023-02-11T04:40:08.958Z,1018.91
2023-02-11T04:45:53.423Z,1019.04
2023-02-11T04:51:37.331Z,1019.04
2023-02-11T04:57:21.187Z,1019.02
2023-02-11T05:03:04.919Z,1019.08
2023-02-11T05:08:48.498Z,1019.06
2023-02-11T05:14:32.343Z,1018.97
2023-02-11T05:20:16.367Z,1018.96
2023-02-11T05:26:00.113Z,1018.88
2023-02-11T05:31:44.036Z,1018.98
2023-02-11T05:37:27.781Z,1018.94
2023-02-11T05:43:11.627Z,1018.89
2023-02-11T05:48:55.305Z,1018.76
2023-02-11T05:54:39.164Z,1018.7
2023-02-11T06:00:23.299Z,1018.58
2023-02-11T06:06:09.992Z,1018.68
2023-02-11T06:11:54.050Z,1018.64
2023-02-11T06:17:37.890Z,1018.61
2023-02-11T06:23:21.967Z,1018.61
2023-02-11T06:29:06.331Z,1018.65
2023-02-11T06:34:50.378Z,1018.59
2023-02-11T06:40:34.207Z,1018.65
2023-02-11T06:46:18.048Z,1018.68
2023-02-11T06:52:01.766Z,1018.73
2023-02-11T06:57:45.510Z,1018.7
2023-02-11T07:03:29.330Z,1018.73
2023-02-11T07:09:13.313Z,1018.8
2023-02-11T07:14:57.372Z,1018.88
2023-02-11T07:20:41.764Z,1018.82
2023-02-11T07:26:25.623Z,1018.89
2023-02-11T07:32:09.616Z,1019.02
2023-02-11T07:37:53.642Z,1019.01
2023-02-11T07:43:38.089Z,1019.1
2023-02-11T07:49:22.012Z,1019.13
2023-02-11T07:55:06.079Z,1019.07
2023-02-11T08:00:49.974Z,1019.13
2023-02-11T08:06:35.199Z,1019.04
2023-02-11T08:12:18.952Z,1019.13
2023-02-11T08:18:01.792Z,1019.29
2023-02-11T08:23:45.613Z,1019.34
2023-02-11T08:29:30.348Z,1019.29
2023-02-11T08:35:14.184Z,1019.32
2023-02-11T08:41:00.102Z,1019.44
2023-02-11T08:46:43.845Z,1019.53
2023-02-11T08:52:27.712Z,1019.52
2023-02-11T08:58:12.353Z,1019.63
2023-02-11T09:03:56.265Z,1019.64
2023-02-11T09:09:40.086Z,1019.74
2023-02-11T09:15:23.807Z,1019.77
2023-02-11T09:21:08.783Z,1019.82
2023-02-11T09:26:52.807Z,1019.94
2023-02-11T09:32:37.549Z,1019.95
2023-02-11T09:38:21.364Z,1019.9
2023-02-11T09:44:07.235Z,1019.93
2023-02-11T09:49:53.366Z,1019.95
2023-02-11T09:55:39.951Z,1019.96
2023-02-11T10:01:29.738Z,1020.04
2023-02-11T10:07:17.982Z,1020.03
2023-02-11T10:13:09.125Z,1020.16
2023-02-11T10:19:07.483Z,1020.11
2023-02-11T10:24:54.581Z,1020.18
2023-02-11T10:30:40.454Z,1020.2
2023-02-11T10:36:29.003Z,1020.35
2023-02-11T10:42:14.103Z,1020.28
2023-02-11T10:47:57.744Z,1020.35
2023-02-11T10:53:41.735Z,1020.21
2023-02-11T10:59:28.168Z,1020.23
2023-02-11T11:05:16.242Z,1020.25
2023-02-11T11:11:07.369Z,1020.32
2023-02-11T11:16:55.693Z,1020.31
2023-02-11T11:22:39.574Z,1020.35
2023-02-11T11:28:25.592Z,1020.36
2023-02-11T11:34:15.070Z,1020.21
2023-02-11T11:40:03.133Z,1020.27
2023-02-11T11:45:57.732Z,1020.18
2023-02-11T11:51:42.853Z,1020.15
2023-02-11T11:57:27.824Z,1020.16
2023-02-11T12:03:23.009Z,1020.09
2023-02-11T12:09:11.552Z,1020.2
2023-02-11T12:14:59.579Z,1020.23
2023-02-11T12:20:48.951Z,1020.15
2023-02-11T12:26:36.634Z,1020.18
2023-02-11T12:32:25.646Z,1020.3
2023-02-11T12:38:26.032Z,1020.25
2023-02-11T12:44:11.698Z,1020.19
2023-02-11T12:50:04.837Z,1020.16
2023-02-11T12:55:52.279Z,1020.12
2023-02-11T13:01:40.586Z,1020.14
2023-02-11T13:07:29.127Z,1020.14
2023-02-11T13:13:18.089Z,1020.01
2023-02-11T13:19:09.004Z,1019.94
2023-02-11T13:24:57.598Z,1019.91
2023-02-11T13:30:42.596Z,1019.94
2023-02-11T13:36:28.139Z,1019.95
2023-02-11T13:42:16.122Z,1019.9
2023-02-11T13:48:02.730Z,1019.81
2023-02-11T13:53:51.124Z,1019.84
2023-02-11T13:59:53.863Z,1019.85
2023-02-11T14:05:38.534Z,1019.91
2023-02-11T14:11:34.565Z,1019.84
2023-02-11T14:17:28.208Z,1019.84
2023-02-11T14:23:25.356Z,1019.88
2023-02-11T14:29:16.245Z,1019.85
2023-02-11T14:35:06.089Z,1019.81
2023-02-11T14:40:55.710Z,1019.82
2023-02-11T14:46:39.791Z,1019.75
2023-02-11T14:52:27.128Z,1019.81
2023-02-11T14:58:13.282Z,1019.86
2023-02-11T15:03:57.347Z,1019.75
2023-02-11T15:09:42.723Z,1019.82
2023-02-11T15:15:26.763Z,1019.84
2023-02-11T15:21:11.078Z,1019.81
2023-02-11T15:27:01.706Z,1019.74
2023-02-11T15:32:45.550Z,1019.7
2023-02-11T15:38:31.003Z,1019.81
2023-02-11T15:44:30.594Z,1019.83
2023-02-11T15:50:25.495Z,1019.91
2023-02-11T15:56:12.484Z,1019.88
2023-02-11T16:01:58.635Z,1019.96
2023-02-11T16:07:44.771Z,1020.06
2023-02-11T16:13:28.513Z,1020.02
2023-02-11T16:19:19.070Z,1019.99
2023-02-11T16:25:05.861Z,1020
2023-02-11T16:30:52.571Z,1020.12
2023-02-11T16:36:37.644Z,1020.12
2023-02-11T16:42:21.607Z,1020.17
2023-02-11T16:48:06.583Z,1020.19
2023-02-11T16:53:50.399Z,1020.18
2023-02-11T16:59:33.083Z,1020.22
2023-02-11T17:05:21.646Z,1020.31
2023-02-11T17:11:26.323Z,1020.33
2023-02-11T17:17:10.215Z,1020.39
2023-02-11T17:22:54.152Z,1020.41
2023-02-11T17:28:38.160Z,1020.47
2023-02-11T17:34:22.875Z,1020.54
2023-02-11T17:40:06.396Z,1020.57
2023-02-11T17:45:50.873Z,1020.52
2023-02-11T17:51:36.829Z,1020.57
2023-02-11T17:57:20.747Z,1020.66
2023-02-11T18:03:04.766Z,1020.75
2023-02-11T18:08:48.743Z,1020.78
2023-02-11T18:14:33.648Z,1020.81
2023-02-11T18:20:17.964Z,1020.81
2023-02-11T18:26:02.064Z,1020.85
2023-02-11T18:31:46.690Z,1020.94
2023-02-11T18:37:30.774Z,1020.94
2023-02-11T18:43:14.544Z,1021.01
2023-02-11T18:48:58.456Z,1021.07
2023-02-11T18:54:43.183Z,1021.02
2023-02-11T19:00:28.044Z,1021.06
2023-02-11T19:06:19.332Z,1021.07
2023-02-11T19:12:03.504Z,1021.12
2023-02-11T19:17:47.398Z,1021.09
2023-02-11T19:23:31.068Z,1021.13
2023-02-11T19:29:15.983Z,1021.15
2023-02-11T19:34:59.781Z,1021.22
2023-02-11T19:40:43.547Z,1021.27
2023-02-11T19:46:28.913Z,1021.28
2023-02-11T19:52:12.867Z,1021.3
2023-02-11T19:57:58.696Z,1021.29
2023-02-11T20:03:43.615Z,1021.33
2023-02-11T20:09:27.441Z,1021.28
2023-02-11T20:15:12.343Z,1021.23
2023-02-11T20:20:56.182Z,1021.25
2023-02-11T20:26:39.765Z,1021.23
2023-02-11T20:32:23.481Z,1021.32
2023-02-11T20:38:07.294Z,1021.31
2023-02-11T20:43:52.548Z,1021.3
2023-02-11T20:49:36.332Z,1021.38
2023-02-11T20:55:20.134Z,1021.41
2023-02-11T21:01:11.419Z,1021.36
2023-02-11T21:06:56.233Z,1021.39
2023-02-11T21:12:39.942Z,1021.51
2023-02-11T21:18:24.395Z,1021.48
2023-02-11T21:24:09.302Z,1021.49
2023-02-11T21:29:55.536Z,1021.57
2023-02-11T21:35:40.623Z,1021.58
2023-02-11T21:41:24.548Z,1021.58
2023-02-11T21:47:08.527Z,1021.6
2023-02-11T21:52:52.481Z,1021.6
2023-02-11T21:58:36.486Z,1021.63
2023-02-11T22:04:20.468Z,1021.66
2023-02-11T22:10:04.672Z,1021.66
2023-02-11T22:15:54.768Z,1021.66
2023-02-11T22:21:39.692Z,1021.67
2023-02-11T22:27:23.470Z,1021.67
2023-02-11T22:33:08.902Z,1021.7
2023-02-11T22:38:52.965Z,1021.7
2023-02-11T22:44:37.433Z,1021.66
2023-02-11T22:50:21.345Z,1021.68
2023-02-11T22:56:09.393Z,1021.57
2023-02-11T23:01:56.868Z,1021.57
2023-02-11T23:07:40.908Z,1021.66
2023-02-11T23:13:24.711Z,1021.73
2023-02-11T23:19:09.342Z,1021.66
2023-02-11T23:24:53.198Z,1021.7
2023-02-11T23:30:38.139Z,1021.76
2023-02-11T23:36:21.966Z,1021.81
2023-02-11T23:42:06.045Z,1021.82
2023-02-11T23:47:49.949Z,1021.88
2023-02-11T23:53:33.576Z,1021.9
2023-02-11T23:59:17.283Z,1021.91
